Drummond, Wisconsin
Current Conditions -  °F | °C
As of 1:53 AM on Wednesday 26 Nov 2014 (Local Time) from KASX Reporting Station
Overcast Overcast  
Wind Chill: 17°   Ceiling: 3200
Heat Index: 17°   Visibility: 10mi
Dew Point: 14°   Wind: 0mph
Humidity: 88%   Direction: NA
Pressure: 30.13"   Gusts: NA
Location:  46.34°N, 91.26°W
Report Text: KASX 260753Z AUTO 00000KT 10SM OVC032 M08/M10 A3013 RMK AO2 SLP219 T10831100
Loading
Personal Weather Stations






























Interactive Weather Map New forecast layout! Learn more

10-Day Weather Forecast

Advertisements
Track Severe Weather on mobile